createdAt,value
2023-01-22T00:02:20.082Z,15.75
2023-01-22T00:04:47.701Z,16.33
2023-01-22T00:07:15.464Z,14.80
2023-01-22T00:09:43.443Z,15.98
2023-01-22T00:12:11.217Z,14.90
2023-01-22T00:14:38.799Z,14.27
2023-01-22T00:17:06.300Z,15.15
2023-01-22T00:19:35.145Z,15.57
2023-01-22T00:22:02.679Z,14.85
2023-01-22T00:24:30.225Z,14.93
2023-01-22T00:26:57.738Z,15.25
2023-01-22T00:29:25.221Z,15.25
2023-01-22T00:31:52.881Z,14.52
2023-01-22T00:34:20.435Z,14.05
2023-01-22T00:36:49.365Z,13.98
2023-01-22T00:39:16.890Z,13.55
2023-01-22T00:41:44.422Z,13.02
2023-01-22T00:44:11.931Z,13.52
2023-01-22T00:46:39.488Z,13.43
2023-01-22T00:49:07.128Z,13.10
2023-01-22T00:51:36.626Z,14.20
2023-01-22T00:54:05.766Z,13.85
2023-01-22T00:56:33.289Z,13.65
2023-01-22T00:59:00.808Z,13.18
2023-01-22T01:01:28.319Z,14.15
2023-01-22T01:03:55.819Z,14.73
2023-01-22T01:06:23.369Z,13.38
2023-01-22T01:08:51.068Z,14.07
2023-01-22T01:11:22.453Z,13.63
2023-01-22T01:13:51.317Z,14.60
2023-01-22T01:16:21.950Z,14.15
2023-01-22T01:18:49.614Z,13.13
2023-01-22T01:21:19.069Z,14.80
2023-01-22T01:23:47.159Z,13.25
2023-01-22T01:26:16.771Z,13.55
2023-01-22T01:28:46.230Z,12.68
2023-01-22T01:31:15.568Z,13.27
2023-01-22T01:33:43.952Z,13.15
2023-01-22T01:36:13.482Z,12.57
2023-01-22T01:38:41.327Z,13.07
2023-01-22T01:41:09.478Z,13.82
2023-01-22T01:43:37.032Z,12.73
2023-01-22T01:46:13.002Z,14.77
2023-01-22T01:48:46.649Z,13.00
2023-01-22T01:51:19.332Z,13.30
2023-01-22T01:53:50.682Z,13.38
2023-01-22T01:56:21.784Z,13.55
2023-01-22T01:58:52.030Z,14.07
2023-01-22T02:01:21.349Z,14.15
2023-01-22T02:03:49.272Z,13.43
2023-01-22T02:06:18.717Z,13.52
2023-01-22T02:08:48.974Z,12.80
2023-01-22T02:11:17.968Z,13.00
2023-01-22T02:13:51.406Z,12.85
2023-01-22T02:16:19.050Z,12.38
2023-01-22T02:18:48.127Z,12.20
2023-01-22T02:21:31.411Z,12.07
2023-01-22T02:23:58.967Z,12.43
2023-01-22T02:26:26.920Z,12.55
2023-01-22T02:28:54.699Z,12.55
2023-01-22T02:31:22.258Z,12.63
2023-01-22T02:33:50.072Z,13.38
2023-01-22T02:36:17.629Z,13.10
2023-01-22T02:38:46.489Z,11.95
2023-01-22T02:41:15.059Z,12.88
2023-01-22T02:43:42.604Z,12.75
2023-01-22T02:46:10.309Z,12.65
2023-01-22T02:48:37.927Z,12.18
2023-01-22T02:51:06.062Z,12.32
2023-01-22T02:53:34.071Z,12.90
2023-01-22T02:56:06.493Z,12.05
2023-01-22T02:58:35.166Z,12.80
2023-01-22T03:01:18.639Z,12.88
2023-01-22T03:03:46.844Z,12.20
2023-01-22T03:06:15.554Z,11.85
2023-01-22T03:08:49.511Z,12.20
2023-01-22T03:11:18.438Z,12.10
2023-01-22T03:14:04.030Z,12.07
2023-01-22T03:16:50.291Z,11.73
2023-01-22T03:19:35.781Z,11.55
2023-01-22T03:22:03.299Z,11.18
2023-01-22T03:24:33.124Z,11.75
2023-01-22T03:27:02.644Z,11.85
2023-01-22T03:29:30.204Z,11.18
2023-01-22T03:31:57.785Z,11.38
2023-01-22T03:34:27.405Z,11.80
2023-01-22T03:36:54.908Z,12.18
2023-01-22T03:39:22.498Z,11.70
2023-01-22T03:41:50.018Z,11.10
2023-01-22T03:44:18.979Z,11.55
2023-01-22T03:46:46.485Z,10.32
2023-01-22T03:49:14.916Z,11.85
2023-01-22T03:51:42.995Z,12.38
2023-01-22T03:54:12.286Z,11.43
2023-01-22T03:56:40.154Z,11.30
2023-01-22T03:59:07.657Z,11.35
2023-01-22T04:01:36.825Z,11.35
2023-01-22T04:04:04.967Z,11.20
2023-01-22T04:06:32.526Z,11.25
2023-01-22T04:09:00.042Z,11.93
2023-01-22T04:11:27.515Z,12.45
2023-01-22T04:13:56.031Z,12.27
2023-01-22T04:16:23.818Z,12.07
2023-01-22T04:18:52.685Z,11.30
2023-01-22T04:21:20.182Z,12.20
2023-01-22T04:23:47.752Z,11.95
2023-01-22T04:26:15.268Z,10.95
2023-01-22T04:28:42.829Z,12.32
2023-01-22T04:31:10.610Z,12.05
2023-01-22T04:33:38.243Z,12.13
2023-01-22T04:36:07.256Z,12.18
2023-01-22T04:38:34.794Z,12.40
2023-01-22T04:41:02.306Z,12.38
2023-01-22T04:43:29.769Z,12.00
2023-01-22T04:45:57.272Z,11.85
2023-01-22T04:48:24.829Z,11.00
2023-01-22T04:50:52.338Z,12.85
2023-01-22T04:53:21.193Z,12.55
2023-01-22T04:55:48.731Z,11.57
2023-01-22T04:58:16.377Z,11.50
2023-01-22T05:00:44.026Z,12.30
2023-01-22T05:03:12.447Z,12.38
2023-01-22T05:05:39.978Z,11.73
2023-01-22T05:08:07.637Z,12.13
2023-01-22T05:10:36.933Z,11.88
2023-01-22T05:13:06.191Z,11.23
2023-01-22T05:15:33.798Z,12.05
2023-01-22T05:18:01.739Z,13.30
2023-01-22T05:20:29.972Z,13.05
2023-01-22T05:22:57.503Z,12.25
2023-01-22T05:25:24.993Z,12.23
2023-01-22T05:27:53.916Z,11.50
2023-01-22T05:30:21.680Z,11.63
2023-01-22T05:32:49.243Z,11.20
2023-01-22T05:35:16.847Z,11.20
2023-01-22T05:37:44.331Z,12.70
2023-01-22T05:40:12.941Z,12.68
2023-01-22T05:42:40.518Z,12.30
2023-01-22T05:45:10.214Z,11.95
2023-01-22T05:47:37.713Z,11.38
2023-01-22T05:50:05.879Z,12.50
2023-01-22T05:52:33.367Z,11.65
2023-01-22T05:55:01.846Z,11.00
2023-01-22T05:57:31.114Z,10.88
2023-01-22T05:59:58.594Z,12.27
2023-01-22T06:02:27.493Z,11.63
2023-01-22T06:04:55.105Z,10.60
2023-01-22T06:07:22.617Z,11.60
2023-01-22T06:09:50.175Z,11.13
2023-01-22T06:12:18.420Z,11.43
2023-01-22T06:14:45.936Z,11.55
2023-01-22T06:17:13.457Z,11.52
2023-01-22T06:19:42.288Z,11.38
2023-01-22T06:22:09.903Z,11.35
2023-01-22T06:24:37.450Z,12.00
2023-01-22T06:27:05.943Z,10.68
2023-01-22T06:29:33.457Z,11.60
2023-01-22T06:32:01.134Z,11.38
2023-01-22T06:34:28.620Z,10.32
2023-01-22T06:36:57.541Z,11.15
2023-01-22T06:39:25.043Z,11.82
2023-01-22T06:41:52.570Z,10.85
2023-01-22T06:44:20.068Z,11.48
2023-01-22T06:46:48.019Z,10.48
2023-01-22T06:49:16.005Z,10.80
2023-01-22T06:51:43.689Z,10.73
2023-01-22T06:54:14.479Z,11.23
2023-01-22T06:56:42.019Z,10.10
2023-01-22T06:59:09.703Z,10.50
2023-01-22T07:01:37.452Z,10.95
2023-01-22T07:04:05.170Z,10.85
2023-01-22T07:06:32.693Z,11.00
2023-01-22T07:09:00.164Z,10.65
2023-01-22T07:11:29.021Z,9.95
2023-01-22T07:13:56.500Z,9.80
2023-01-22T07:16:23.982Z,9.73
2023-01-22T07:18:51.520Z,9.73
2023-01-22T07:21:19.011Z,9.30
2023-01-22T07:23:46.498Z,10.05
2023-01-22T07:26:14.987Z,9.63
2023-01-22T07:28:44.648Z,10.23
2023-01-22T07:31:13.191Z,10.07
2023-01-22T07:33:40.818Z,9.65
2023-01-22T07:36:08.751Z,10.30
2023-01-22T07:38:36.274Z,11.05
2023-01-22T07:41:13.923Z,10.63
2023-01-22T07:43:50.025Z,9.95
2023-01-22T07:46:17.657Z,11.35
2023-01-22T07:48:46.557Z,11.73
2023-01-22T07:51:14.095Z,19.10
2023-01-22T07:53:42.649Z,14.82
2023-01-22T07:56:10.180Z,12.00
2023-01-22T07:58:39.131Z,11.50
2023-01-22T08:01:08.603Z,10.88
2023-01-22T08:03:37.750Z,11.65
2023-01-22T08:06:09.417Z,11.00
2023-01-22T08:08:36.935Z,10.80
2023-01-22T08:11:04.706Z,10.73
2023-01-22T08:13:32.285Z,10.20
2023-01-22T08:15:59.839Z,10.88
2023-01-22T08:18:30.077Z,10.82
2023-01-22T08:21:00.567Z,10.73
2023-01-22T08:23:28.169Z,11.02
2023-01-22T08:25:59.173Z,10.77
2023-01-22T08:28:26.746Z,10.27
2023-01-22T08:30:58.582Z,11.40
2023-01-22T08:33:28.265Z,10.65
2023-01-22T08:35:55.923Z,10.00
2023-01-22T08:38:23.570Z,10.18
2023-01-22T08:40:51.839Z,10.82
2023-01-22T08:43:19.441Z,11.18
2023-01-22T08:45:49.756Z,10.68
2023-01-22T08:48:17.799Z,10.88
2023-01-22T08:50:46.952Z,11.32
2023-01-22T08:53:14.494Z,10.38
2023-01-22T08:55:41.988Z,10.05
2023-01-22T08:58:10.530Z,11.15
2023-01-22T09:00:38.015Z,11.27
2023-01-22T09:03:06.868Z,11.18
2023-01-22T09:05:34.344Z,11.00
2023-01-22T09:08:03.174Z,11.40
2023-01-22T09:10:30.659Z,10.50
2023-01-22T09:12:59.594Z,10.95
2023-01-22T09:15:27.419Z,11.65
2023-01-22T09:17:54.914Z,10.23
2023-01-22T09:20:22.772Z,11.48
2023-01-22T09:22:50.334Z,10.95
2023-01-22T09:25:19.170Z,11.65
2023-01-22T09:27:46.694Z,11.40
2023-01-22T09:30:14.995Z,12.60
2023-01-22T09:32:42.660Z,13.85
2023-01-22T09:35:11.107Z,11.93
2023-01-22T09:37:38.584Z,12.75
2023-01-22T09:40:07.164Z,12.25
2023-01-22T09:42:41.182Z,12.10
2023-01-22T09:45:13.354Z,12.43
2023-01-22T09:47:45.521Z,12.70
2023-01-22T09:50:19.380Z,12.60
2023-01-22T09:52:47.867Z,12.23
2023-01-22T09:55:17.392Z,12.45
2023-01-22T09:57:47.669Z,12.23
2023-01-22T10:00:21.568Z,11.65
2023-01-22T10:02:53.557Z,12.93
2023-01-22T10:05:28.699Z,12.02
2023-01-22T10:08:01.342Z,12.27
2023-01-22T10:10:30.130Z,13.45
2023-01-22T10:13:02.414Z,13.55
2023-01-22T10:15:29.927Z,13.10
2023-01-22T10:17:58.746Z,13.88
2023-01-22T10:20:27.073Z,11.90
2023-01-22T10:22:56.669Z,13.50
2023-01-22T10:25:24.137Z,15.32
2023-01-22T10:28:02.225Z,12.95
2023-01-22T10:30:30.580Z,14.13
2023-01-22T10:32:59.473Z,14.80
2023-01-22T10:35:27.739Z,13.55
2023-01-22T10:37:57.097Z,12.45
2023-01-22T10:40:27.525Z,13.57
2023-01-22T10:43:04.635Z,12.82
2023-01-22T10:45:32.301Z,13.52
2023-01-22T10:48:21.194Z,13.82
2023-01-22T10:51:01.670Z,13.27
2023-01-22T10:53:33.517Z,13.35
2023-01-22T10:56:04.756Z,14.45
2023-01-22T10:58:36.843Z,12.88
2023-01-22T11:01:06.869Z,13.13
2023-01-22T11:03:37.174Z,13.75
2023-01-22T11:06:12.239Z,14.40
2023-01-22T11:08:49.267Z,14.13
2023-01-22T11:11:21.391Z,14.52
2023-01-22T11:13:55.991Z,14.73
2023-01-22T11:16:24.962Z,14.65
2023-01-22T11:18:58.426Z,13.98
2023-01-22T11:21:30.677Z,14.00
2023-01-22T11:24:04.223Z,15.02
2023-01-22T11:26:42.621Z,13.70
2023-01-22T11:29:22.580Z,13.73
2023-01-22T11:32:08.267Z,14.48
2023-01-22T11:34:56.041Z,14.43
2023-01-22T11:37:43.314Z,15.02
2023-01-22T11:40:24.975Z,14.20
2023-01-22T11:43:20.609Z,14.75
2023-01-22T11:46:02.906Z,15.85
2023-01-22T11:48:41.983Z,14.18
2023-01-22T11:51:21.527Z,15.00
2023-01-22T11:54:13.175Z,13.70
2023-01-22T11:56:52.818Z,13.90
2023-01-22T11:59:32.424Z,14.02
2023-01-22T12:02:25.533Z,13.77
2023-01-22T12:05:16.809Z,14.15
2023-01-22T12:08:08.887Z,14.18
2023-01-22T12:10:48.199Z,14.70
2023-01-22T12:13:31.886Z,14.48
2023-01-22T12:16:11.091Z,14.45
2023-01-22T12:18:59.660Z,14.23
2023-01-22T12:21:42.290Z,14.90
2023-01-22T12:24:14.848Z,14.50
2023-01-22T12:26:47.560Z,14.52
2023-01-22T12:29:20.267Z,15.05
2023-01-22T12:31:51.931Z,15.05
2023-01-22T12:34:26.567Z,14.57
2023-01-22T12:36:56.430Z,14.95
2023-01-22T12:39:28.022Z,16.02
2023-01-22T12:42:07.282Z,16.13
2023-01-22T12:44:49.945Z,14.88
2023-01-22T12:47:22.800Z,15.75
2023-01-22T12:49:53.266Z,17.00
2023-01-22T12:52:34.297Z,17.20
2023-01-22T12:55:02.894Z,16.17
2023-01-22T12:57:39.329Z,15.63
2023-01-22T13:00:23.901Z,15.52
2023-01-22T13:02:52.158Z,14.80
2023-01-22T13:05:36.289Z,14.77
2023-01-22T13:08:06.544Z,14.07
2023-01-22T13:10:36.940Z,15.02
2023-01-22T13:13:17.231Z,14.68
2023-01-22T13:15:44.963Z,16.52
2023-01-22T13:18:20.931Z,15.52
2023-01-22T13:20:57.681Z,15.88
2023-01-22T13:23:25.757Z,15.85
2023-01-22T13:25:55.650Z,15.85
2023-01-22T13:28:24.008Z,17.27
2023-01-22T13:31:03.122Z,15.80
2023-01-22T13:33:31.122Z,16.58
2023-01-22T13:36:10.656Z,18.50
2023-01-22T13:38:38.601Z,16.42
2023-01-22T13:41:09.502Z,16.33
2023-01-22T13:43:39.613Z,16.52
2023-01-22T13:46:08.006Z,16.65
2023-01-22T13:48:35.631Z,16.48
2023-01-22T13:51:07.376Z,16.08
2023-01-22T13:53:41.664Z,15.65
2023-01-22T13:56:16.228Z,16.13
2023-01-22T13:58:48.591Z,15.77
2023-01-22T14:01:28.874Z,16.17
2023-01-22T14:04:00.589Z,16.90
2023-01-22T14:06:29.920Z,16.00
2023-01-22T14:08:58.915Z,16.25
2023-01-22T14:11:26.496Z,16.10
2023-01-22T14:13:54.514Z,15.95
2023-01-22T14:16:22.171Z,34.50
2023-01-22T14:18:49.916Z,34.08
2023-01-22T14:21:17.916Z,18.60
2023-01-22T14:23:46.756Z,17.55
2023-01-22T14:26:14.245Z,17.60
2023-01-22T14:28:41.748Z,16.70
2023-01-22T14:31:09.606Z,17.38
2023-01-22T14:33:37.135Z,16.92
2023-01-22T14:36:05.330Z,18.20
2023-01-22T14:38:32.888Z,16.30
2023-01-22T14:41:04.546Z,17.58
2023-01-22T14:43:32.208Z,17.60
2023-01-22T14:45:59.882Z,18.15
2023-01-22T14:48:27.576Z,16.35
2023-01-22T14:50:55.072Z,17.80
2023-01-22T14:53:22.626Z,19.00
2023-01-22T14:55:50.080Z,17.27
2023-01-22T14:58:18.897Z,17.95
2023-01-22T15:00:46.413Z,18.10
2023-01-22T15:03:13.891Z,17.35
2023-01-22T15:05:41.691Z,18.40
2023-01-22T15:08:09.199Z,18.63
2023-01-22T15:10:36.676Z,17.98
2023-01-22T15:13:04.450Z,18.25
2023-01-22T15:15:33.726Z,16.65
2023-01-22T15:18:01.214Z,17.08
2023-01-22T15:20:28.673Z,17.02
2023-01-22T15:22:56.172Z,18.13
2023-01-22T15:25:23.828Z,19.80
2023-01-22T15:27:51.325Z,17.92
2023-01-22T15:30:19.540Z,17.73
2023-01-22T15:32:48.535Z,17.42
2023-01-22T15:35:16.040Z,18.30
2023-01-22T15:37:43.539Z,17.42
2023-01-22T15:40:12.406Z,18.25
2023-01-22T15:42:39.904Z,17.15
2023-01-22T15:45:08.419Z,17.00
2023-01-22T15:47:35.931Z,17.17
2023-01-22T15:50:05.352Z,16.63
2023-01-22T15:52:32.934Z,17.65
2023-01-22T15:55:00.557Z,17.60
2023-01-22T15:57:28.645Z,17.05
2023-01-22T15:59:56.119Z,16.35
2023-01-22T16:02:23.670Z,16.50
2023-01-22T16:04:51.218Z,16.67
2023-01-22T16:07:20.063Z,16.65
2023-01-22T16:09:47.557Z,17.27
2023-01-22T16:12:15.206Z,17.10
2023-01-22T16:14:42.693Z,17.67
2023-01-22T16:17:10.232Z,17.95
2023-01-22T16:19:37.717Z,18.55
2023-01-22T16:22:05.456Z,23.92
2023-01-22T16:24:34.586Z,19.92
2023-01-22T16:27:02.061Z,18.02
2023-01-22T16:29:29.544Z,17.88
2023-01-22T16:31:57.512Z,18.10
2023-01-22T16:34:25.026Z,18.17
2023-01-22T16:36:52.913Z,16.17
2023-01-22T16:39:22.754Z,16.98
2023-01-22T16:41:53.167Z,17.67
2023-01-22T16:44:26.104Z,17.42
2023-01-22T16:46:55.273Z,17.77
2023-01-22T16:49:24.694Z,16.52
2023-01-22T16:51:53.659Z,17.40
2023-01-22T16:54:23.366Z,17.95
2023-01-22T16:56:52.493Z,16.30
2023-01-22T16:59:20.026Z,16.75
2023-01-22T17:01:47.613Z,18.95
2023-01-22T17:04:15.441Z,18.15
2023-01-22T17:06:44.938Z,18.45
2023-01-22T17:09:15.400Z,17.73
2023-01-22T17:11:43.470Z,18.55
2023-01-22T17:14:12.345Z,19.33
2023-01-22T17:16:39.817Z,19.88
2023-01-22T17:19:07.377Z,20.38
2023-01-22T17:21:34.933Z,18.77
2023-01-22T17:24:15.282Z,19.00
2023-01-22T17:30:24.307Z,19.02
2023-01-22T17:32:52.105Z,19.80
2023-01-22T17:35:21.906Z,20.00
2023-01-22T17:37:49.642Z,20.48
2023-01-22T17:40:21.873Z,20.88
2023-01-22T17:42:57.897Z,21.60
2023-01-22T17:45:28.323Z,20.17
2023-01-22T17:48:17.618Z,20.95
2023-01-22T17:50:47.774Z,19.80
2023-01-22T17:53:19.492Z,21.38
2023-01-22T17:55:49.942Z,19.08
2023-01-22T17:58:20.223Z,19.10
2023-01-22T18:00:54.433Z,19.52
2023-01-22T18:03:23.604Z,20.92
2023-01-22T18:05:54.433Z,20.80
2023-01-22T18:08:21.985Z,20.25
2023-01-22T18:10:49.707Z,20.48
2023-01-22T18:13:17.232Z,23.63
2023-01-22T18:15:46.464Z,21.65
2023-01-22T18:18:15.404Z,21.17
2023-01-22T18:20:44.097Z,23.30
2023-01-22T18:23:15.414Z,23.25
2023-01-22T18:25:50.191Z,22.35
2023-01-22T18:28:19.126Z,20.95
2023-01-22T18:30:48.096Z,21.42
2023-01-22T18:33:18.841Z,24.17
2023-01-22T18:35:47.666Z,24.08
2023-01-22T18:38:25.027Z,21.05
2023-01-22T18:40:57.115Z,22.25
2023-01-22T18:43:24.691Z,22.45
2023-01-22T18:46:07.135Z,24.15
2023-01-22T18:48:36.411Z,25.45
2023-01-22T18:51:10.582Z,22.27
2023-01-22T18:53:47.472Z,22.42
2023-01-22T18:56:15.278Z,21.65
2023-01-22T18:58:44.678Z,19.65
2023-01-22T19:04:21.622Z,18.90
2023-01-22T19:09:20.575Z,15.02
2023-01-22T19:11:49.325Z,15.13
2023-01-22T19:14:20.246Z,19.58
2023-01-22T19:16:50.816Z,35.53
2023-01-22T19:19:20.400Z,24.75
2023-01-22T19:21:52.916Z,17.48
2023-01-22T19:24:24.906Z,18.48
2023-01-22T19:26:54.794Z,17.10
2023-01-22T19:29:24.011Z,18.08
2023-01-22T19:31:52.856Z,15.20
2023-01-22T19:34:24.600Z,14.88
2023-01-22T19:36:53.816Z,16.60
2023-01-22T19:39:22.376Z,15.88
2023-01-22T19:41:50.025Z,17.88
2023-01-22T19:44:17.881Z,15.95
2023-01-22T19:46:45.467Z,16.33
2023-01-22T19:49:14.053Z,16.17
2023-01-22T19:51:42.941Z,14.85
2023-01-22T19:54:10.555Z,16.35
2023-01-22T19:56:39.599Z,14.93
2023-01-22T19:59:09.645Z,14.18
2023-01-22T20:01:37.826Z,14.93
2023-01-22T20:04:08.717Z,15.25
2023-01-22T20:06:36.232Z,16.33
2023-01-22T20:09:05.406Z,15.82
2023-01-22T20:11:33.108Z,15.95
2023-01-22T20:14:00.590Z,15.32
2023-01-22T20:16:30.152Z,15.52
2023-01-22T20:18:58.744Z,15.07
2023-01-22T20:21:28.478Z,15.32
2023-01-22T20:23:56.020Z,15.65
2023-01-22T20:26:24.856Z,15.55
2023-01-22T20:28:52.538Z,15.25
2023-01-22T20:31:23.112Z,14.90
2023-01-22T20:33:52.324Z,15.38
2023-01-22T20:36:20.976Z,15.82
2023-01-22T20:38:52.623Z,15.75
2023-01-22T20:41:20.616Z,16.23
2023-01-22T20:43:49.565Z,17.67
2023-01-22T20:46:18.961Z,17.30
2023-01-22T20:48:47.022Z,16.55
2023-01-22T20:51:16.231Z,16.38
2023-01-22T20:53:44.173Z,17.52
2023-01-22T20:56:14.953Z,16.70
2023-01-22T20:58:42.474Z,19.35
2023-01-22T21:01:14.447Z,17.27
2023-01-22T21:03:42.860Z,17.05
2023-01-22T21:06:14.039Z,16.10
2023-01-22T21:08:42.623Z,17.60
2023-01-22T21:11:12.672Z,17.25
2023-01-22T21:13:41.013Z,17.10
2023-01-22T21:16:10.396Z,15.93
2023-01-22T21:18:41.448Z,15.07
2023-01-22T21:21:09.580Z,16.30
2023-01-22T21:23:37.530Z,15.10
2023-01-22T21:26:06.446Z,15.73
2023-01-22T21:28:33.951Z,14.65
2023-01-22T21:31:06.750Z,15.50
2023-01-22T21:33:34.377Z,15.63
2023-01-22T21:36:03.703Z,16.33
2023-01-22T21:38:31.205Z,17.13
2023-01-22T21:41:06.850Z,18.45
2023-01-22T21:43:52.363Z,19.15
2023-01-22T21:46:24.872Z,17.85
2023-01-22T21:48:53.738Z,17.63
2023-01-22T21:51:22.751Z,18.88
2023-01-22T21:53:50.304Z,18.23
2023-01-22T21:56:17.758Z,18.33
2023-01-22T21:58:46.175Z,17.60
2023-01-22T22:01:16.454Z,18.05
2023-01-22T22:03:44.346Z,16.52
2023-01-22T22:06:13.226Z,16.95
2023-01-22T22:08:43.395Z,17.40
2023-01-22T22:11:11.760Z,16.17
2023-01-22T22:13:39.238Z,16.70
2023-01-22T22:16:08.834Z,15.55
2023-01-22T22:18:37.171Z,16.08
2023-01-22T22:21:07.268Z,14.68
2023-01-22T22:23:36.399Z,15.98
2023-01-22T22:26:06.831Z,15.10
2023-01-22T22:28:34.711Z,13.30
2023-01-22T22:31:08.203Z,13.93
2023-01-22T22:33:35.722Z,13.00
2023-01-22T22:36:03.234Z,12.93
2023-01-22T22:38:31.593Z,12.32
2023-01-22T22:41:00.589Z,12.65
2023-01-22T22:43:32.442Z,11.48
2023-01-22T22:46:03.425Z,11.68
2023-01-22T22:48:31.277Z,10.82
2023-01-22T22:50:58.844Z,11.43
2023-01-22T22:53:26.384Z,11.93
2023-01-22T22:55:53.954Z,11.77
2023-01-22T22:58:21.545Z,10.88
2023-01-22T23:00:50.387Z,11.57
2023-01-22T23:03:17.898Z,11.55
2023-01-22T23:05:45.476Z,10.13
2023-01-22T23:08:12.999Z,10.88
2023-01-22T23:10:40.562Z,10.82
2023-01-22T23:13:08.067Z,11.23
2023-01-22T23:15:35.651Z,12.07
2023-01-22T23:18:04.598Z,12.85
2023-01-22T23:20:32.115Z,12.15
2023-01-22T23:23:00.088Z,11.50
2023-01-22T23:25:27.931Z,12.90
2023-01-22T23:27:55.679Z,11.70
2023-01-22T23:30:23.277Z,12.07
2023-01-22T23:32:50.791Z,12.30
2023-01-22T23:35:19.709Z,11.90
2023-01-22T23:37:47.188Z,11.90
2023-01-22T23:40:14.721Z,12.98
2023-01-22T23:42:42.242Z,13.25
2023-01-22T23:45:11.863Z,12.23
2023-01-22T23:47:39.589Z,11.70
2023-01-22T23:50:08.601Z,12.48
2023-01-22T23:52:38.423Z,12.88
2023-01-22T23:55:06.661Z,12.35
2023-01-22T23:57:34.165Z,13.00
